Time;durP1;ratioP1;P1;durP2;ratioP2;P2;SDS_P1;SDS_P2;PMS_P1;PMS_P2;Temp;Humidity;BMP_temperature;BMP_pressure;BME280_temperature;BME280_humidity;BME280_pressure;Samples;Min_cycle;Max_cycle;Signal;HPM_P1;HPM_P2
2023/10/01 00:01:30;;;;;;;15.10;6.13;;;;;;;11.78;92.75;101677.84;5130344;28;20078;-75
2023/10/01 00:04:35;;;;;;;8.27;6.22;;;;;;;11.74;93.05;101680.63;5130979;28;20069;-75
2023/10/01 00:07:38;;;;;;;12.88;6.28;;;;;;;11.59;93.19;101674.22;5130741;28;20403;-75
2023/10/01 00:10:41;;;;;;;7.55;5.65;;;;;;;11.48;93.72;101676.38;5130720;28;20037;-75
2023/10/01 00:13:45;;;;;;;8.40;6.13;;;;;;;11.62;93.61;101674.94;5130622;28;20406;-75
2023/10/01 00:16:51;;;;;;;8.18;6.28;;;;;;;11.52;93.50;101667.47;5130605;28;20088;-75
2023/10/01 00:19:55;;;;;;;10.70;6.88;;;;;;;11.51;93.90;101666.63;5130607;28;20472;-75
2023/10/01 00:23:02;;;;;;;12.63;6.20;;;;;;;11.56;93.16;101659.47;5130550;28;20061;-75
2023/10/01 00:26:05;;;;;;;6.97;5.47;;;;;;;11.57;93.21;101663.78;5130425;28;20058;-75
2023/10/01 00:29:09;;;;;;;11.52;6.80;;;;;;;11.49;93.10;101671.09;5130464;28;20398;-74
2023/10/01 00:32:12;;;;;;;;;;;;;;;11.59;92.71;101671.59;5129906;28;20069;-75
2023/10/01 00:35:15;;;;;;;9.90;6.13;;;;;;;11.58;92.36;101676.00;5130440;28;19919;-75
2023/10/01 00:38:19;;;;;;;7.88;5.70;;;;;;;11.57;92.50;101671.63;5130346;28;20720;-75
2023/10/01 00:41:23;;;;;;;8.02;5.68;;;;;;;11.53;92.24;101674.44;5130283;28;20529;-75
2023/10/01 00:44:26;;;;;;;8.95;5.40;;;;;;;11.53;92.81;101669.22;5130096;28;20148;-75
2023/10/01 00:47:32;;;;;;;9.20;5.72;;;;;;;11.45;93.23;101666.00;5128699;28;20518;-75
2023/10/01 00:50:36;;;;;;;10.57;5.53;;;;;;;11.50;92.86;101664.09;5130006;28;20041;-75
2023/10/01 00:53:39;;;;;;;8.18;6.00;;;;;;;11.38;92.41;101663.63;5129006;28;20556;-76
2023/10/01 00:56:44;;;;;;;;;;;;;;;11.34;93.37;101654.19;5129746;28;20410;-76
2023/10/01 00:59:48;;;;;;;6.85;4.82;;;;;;;11.40;92.76;101642.63;5117599;28;19919;-76
2023/10/01 01:03:00;;;;;;;10.82;5.70;;;;;;;11.32;92.96;101640.28;5115370;28;20054;-76
2023/10/01 01:06:13;;;;;;;10.43;5.60;;;;;;;11.22;92.97;101644.16;5115151;28;20101;-76
2023/10/01 01:09:20;;;;;;;7.72;5.25;;;;;;;11.26;92.60;101626.56;5115113;28;20407;-76
2023/10/01 01:12:24;;;;;;;8.32;5.03;;;;;;;11.28;91.61;101630.00;5115882;28;20534;-76
2023/10/01 01:15:27;;;;;;;7.93;5.55;;;;;;;11.27;91.82;101623.06;5115778;28;20502;-76
2023/10/01 01:18:34;;;;;;;8.50;5.55;;;;;;;11.24;92.19;101625.78;5114996;28;20502;-76
2023/10/01 01:21:42;;;;;;;10.88;5.55;;;;;;;11.13;92.24;101619.16;5115751;28;20084;-74
2023/10/01 01:24:47;;;;;;;7.97;5.18;;;;;;;11.14;92.40;101620.03;5115617;28;20046;-75
2023/10/01 01:27:50;;;;;;;8.38;5.60;;;;;;;11.15;92.50;101619.97;5115523;28;20046;-75
2023/10/01 01:30:55;;;;;;;14.88;5.82;;;;;;;11.07;92.95;101618.53;5114450;28;20042;-75
2023/10/01 01:33:59;;;;;;;10.13;5.88;;;;;;;11.12;93.13;101616.63;5115517;28;20502;-75
2023/10/01 01:37:05;;;;;;;8.88;6.07;;;;;;;11.16;93.58;101619.06;5114633;28;20108;-75
2023/10/01 01:40:23;;;;;;;8.57;4.80;;;;;;;11.16;93.33;101623.44;5115307;28;20068;-75
2023/10/01 01:43:30;;;;;;;14.13;6.18;;;;;;;11.18;93.47;101626.88;5114620;28;20046;-75
2023/10/01 01:46:34;;;;;;;8.35;5.40;;;;;;;11.18;93.23;101621.63;5114896;28;20205;-76
2023/10/01 01:49:42;;;;;;;5.60;4.45;;;;;;;11.09;94.24;101622.81;5115180;28;20124;-75
2023/10/01 01:52:51;;;;;;;8.48;5.57;;;;;;;11.07;94.01;101624.66;5115136;28;20046;-75
2023/10/01 01:55:56;;;;;;;7.53;5.97;;;;;;;11.03;93.83;101609.94;5115002;28;20169;-76
2023/10/01 01:59:01;;;;;;;7.65;5.20;;;;;;;11.08;93.88;101599.34;5114102;28;20069;-76
2023/10/01 02:02:07;;;;;;;11.52;5.47;;;;;;;11.16;93.14;101602.50;5115039;28;20179;-75
2023/10/01 02:05:10;;;;;;;6.05;5.07;;;;;;;11.13;93.05;101594.75;5114954;28;20117;-75
2023/10/01 02:11:37;;;;;;;12.25;6.05;;;;;;;11.06;91.89;101574.97;5112869;28;20054;-75
2023/10/01 02:14:40;;;;;;;13.57;5.78;;;;;;;10.99;91.88;101582.19;5114074;28;20051;-75
2023/10/01 02:17:44;;;;;;;10.85;5.85;;;;;;;11.03;91.67;101591.63;5114741;28;20101;-76
2023/10/01 02:20:52;;;;;;;11.55;6.07;;;;;;;11.02;91.15;101591.72;5114763;28;20091;-76
2023/10/01 02:23:56;;;;;;;15.00;6.45;;;;;;;10.94;91.68;101595.47;5113656;28;20096;-76
2023/10/01 02:27:00;;;;;;;10.65;5.95;;;;;;;10.90;91.78;101586.00;5114332;28;20065;-76
2023/10/01 02:30:13;;;;;;;;;;;;;;;10.95;91.23;101596.31;5114819;28;20424;-76
2023/10/01 02:33:18;;;;;;;;;;;;;;;10.87;92.05;101575.66;5114864;28;20417;-76
2023/10/01 02:36:23;;;;;;;9.65;6.10;;;;;;;10.96;92.30;101577.06;5113236;28;19958;-75
2023/10/01 02:39:29;;;;;;;12.77;5.32;;;;;;;10.92;92.53;101573.72;5114109;28;20411;-75
2023/10/01 02:42:32;;;;;;;7.82;4.95;;;;;;;10.94;92.32;101577.16;5113124;28;20062;-75
2023/10/01 02:45:41;;;;;;;;;;;;;;;10.53;94.01;101581.25;5114329;28;20042;-76
2023/10/01 02:48:46;;;;;;;11.13;4.78;;;;;;;10.50;94.32;101585.72;5113680;28;20416;-76
2023/10/01 02:51:49;;;;;;;7.40;4.55;;;;;;;10.41;95.59;101584.28;5113083;28;20046;-75
2023/10/01 02:54:54;;;;;;;7.05;4.65;;;;;;;10.45;95.26;101585.88;5113794;28;20050;-75
2023/10/01 02:58:03;;;;;;;10.00;4.13;;;;;;;10.43;95.52;101591.19;5113162;28;20042;-75
2023/10/01 03:01:13;;;;;;;4.85;3.63;;;;;;;10.60;94.46;101592.34;5113679;28;20139;-75
2023/10/01 03:04:17;;;;;;;8.63;4.05;;;;;;;10.54;94.19;101592.56;5101246;28;20063;-75
2023/10/01 03:07:24;;;;;;;6.00;4.57;;;;;;;10.61;94.84;101594.91;5112548;28;20081;-75
2023/10/01 03:10:29;;;;;;;5.72;3.92;;;;;;;10.70;94.20;101588.50;5112712;28;20074;-75
2023/10/01 03:13:33;;;;;;;7.32;4.75;;;;;;;10.74;93.37;101590.09;5113421;28;20127;-75
2023/10/01 03:19:46;;;;;;;5.22;4.00;;;;;;;10.78;92.85;101586.44;5112789;28;19997;-75
2023/10/01 03:22:53;;;;;;;6.50;4.00;;;;;;;10.78;92.81;101585.59;5113413;28;20196;-75
2023/10/01 03:26:08;;;;;;;11.20;4.03;;;;;;;10.69;93.20;101582.41;5113285;28;20049;-75
2023/10/01 03:29:45;;;;;;;6.20;4.40;;;;;;;10.65;93.14;101578.19;5113140;28;20064;-75
2023/10/01 03:32:40;;;;;;;6.35;3.78;;;;;;;10.60;92.95;101581.91;5113308;28;20046;-76
2023/10/01 03:35:47;;;;;;;;;;;;;;;10.52;93.22;101579.53;5113887;28;20169;-76
2023/10/01 03:39:38;;;;;;;9.65;4.05;;;;;;;10.53;93.98;101575.16;5112978;28;19919;-75
2023/10/01 03:42:19;;;;;;;6.57;3.90;;;;;;;10.58;93.13;101575.84;5113261;28;20104;-75
2023/10/01 03:45:53;;;;;;;7.30;4.10;;;;;;;10.62;93.09;101585.28;5112924;28;20043;-75
2023/10/01 03:49:00;;;;;;;7.22;4.40;;;;;;;10.68;93.01;101578.06;5072542;28;20048;-75
2023/10/01 03:52:04;;;;;;;6.85;4.28;;;;;;;10.57;93.72;101571.53;5072481;28;20170;-76
2023/10/01 03:55:27;;;;;;;8.80;4.72;;;;;;;10.54;93.45;101572.50;5072268;28;20094;-76
2023/10/01 03:58:36;;;;;;;9.30;5.22;;;;;;;10.63;93.01;101576.56;5072338;28;20065;-76
2023/10/01 04:01:58;;;;;;;9.73;4.72;;;;;;;10.57;92.62;101577.63;5072140;28;20078;-76
2023/10/01 04:05:06;;;;;;;7.60;4.57;;;;;;;10.51;92.86;101571.75;5072412;28;20557;-77
2023/10/01 04:08:11;;;;;;;12.70;6.93;;;;;;;10.52;92.35;101573.44;5072205;28;20051;-75
2023/10/01 04:11:15;;;;;;;8.13;5.45;;;;;;;10.59;91.70;101569.69;5072374;28;20135;-75
2023/10/01 04:14:18;;;;;;;8.30;4.82;;;;;;;10.51;91.70;101566.53;5072249;28;20094;-75
2023/10/01 04:17:35;;;;;;;8.82;5.55;;;;;;;10.53;90.74;101569.91;5072493;28;20059;-75
2023/10/01 04:20:47;;;;;;;7.18;4.60;;;;;;;10.51;90.52;101569.13;5072335;28;20101;-75
2023/10/01 04:23:51;;;;;;;7.47;4.57;;;;;;;10.50;91.01;101580.47;5072272;28;20110;-76
2023/10/01 04:26:54;;;;;;;9.35;5.07;;;;;;;10.38;91.30;101573.94;5072221;28;20462;-75
2023/10/01 04:30:00;;;;;;;12.95;5.32;;;;;;;10.43;91.31;101585.06;5072258;28;20075;-75
2023/10/01 04:33:17;;;;;;;9.07;4.43;;;;;;;10.35;91.98;101576.66;5072163;28;20102;-75
2023/10/01 04:36:20;;;;;;;9.00;4.40;;;;;;;10.29;92.38;101577.72;5075937;28;20079;-75
2023/10/01 04:39:23;;;;;;;;;;;;;;;10.30;92.41;101579.41;5076420;28;20086;-76
2023/10/01 04:42:26;;;;;;;13.20;5.20;;;;;;;10.36;92.04;101588.81;5075864;28;19920;-76
2023/10/01 04:45:36;;;;;;;9.75;5.07;;;;;;;10.32;91.99;101582.84;5075872;28;20043;-75
2023/10/01 04:48:43;;;;;;;8.38;4.82;;;;;;;10.28;91.59;101581.25;5112855;28;20573;-75
2023/10/01 04:51:47;;;;;;;8.52;5.18;;;;;;;10.25;91.48;101581.31;5116497;28;20070;-75
2023/10/01 04:54:55;;;;;;;8.25;5.53;;;;;;;10.22;91.82;101590.13;5116391;28;20074;-75
2023/10/01 04:57:59;;;;;;;14.63;5.80;;;;;;;10.14;92.76;101589.50;5115590;28;20039;-76
2023/10/01 05:01:07;;;;;;;12.90;5.05;;;;;;;10.05;93.46;101594.19;5116126;28;20197;-74
2023/10/01 05:04:14;;;;;;;13.93;5.15;;;;;;;10.06;94.00;101601.13;5116083;28;20076;-74
2023/10/01 05:07:18;;;;;;;13.25;4.72;;;;;;;10.02;93.99;101596.00;5115900;28;20046;-74
2023/10/01 05:10:22;;;;;;;14.02;5.13;;;;;;;9.97;94.25;101594.44;5115945;28;20043;-74
2023/10/01 05:13:26;;;;;;;9.30;4.20;;;;;;;9.92;94.14;101599.84;5115698;28;20092;-74
2023/10/01 05:16:32;;;;;;;7.95;4.45;;;;;;;9.94;94.36;101599.78;5115583;28;20080;-75
2023/10/01 05:19:38;;;;;;;5.90;3.80;;;;;;;9.98;93.67;101606.59;5115102;28;20391;-75
2023/10/01 05:22:50;;;;;;;8.88;4.68;;;;;;;9.93;93.60;101606.75;5115462;28;20042;-75
2023/10/01 05:25:57;;;;;;;6.28;4.18;;;;;;;9.99;93.36;101608.31;5115571;28;20547;-75
2023/10/01 05:29:07;;;;;;;8.35;3.75;;;;;;;9.99;92.94;101616.16;5113418;28;20104;-74
2023/10/01 05:32:11;;;;;;;8.18;4.15;;;;;;;10.01;92.97;101620.41;5113019;28;20042;-76
2023/10/01 05:35:15;;;;;;;8.95;4.10;;;;;;;10.00;92.85;101628.31;5112985;28;20043;-75
2023/10/01 05:38:19;;;;;;;5.55;3.20;;;;;;;10.00;92.19;101629.16;5114088;28;20148;-75
2023/10/01 05:41:32;;;;;;;4.72;3.58;;;;;;;10.01;92.60;101628.25;5114122;28;20070;-75
2023/10/01 05:44:35;;;;;;;3.90;2.67;;;;;;;9.98;92.07;101628.34;5113754;28;20548;-74
2023/10/01 05:47:41;;;;;;;;;;;;;;;10.08;91.77;101631.53;5114215;28;20050;-75
2023/10/01 05:50:45;;;;;;;5.88;2.42;;;;;;;10.04;91.61;101626.44;5113769;28;20139;-75
2023/10/01 05:53:52;;;;;;;4.55;2.47;;;;;;;9.90;92.18;101638.22;5113651;28;20049;-75
2023/10/01 05:56:55;;;;;;;4.05;2.55;;;;;;;9.98;91.68;101630.97;5113827;28;20068;-75
2023/10/01 06:00:00;;;;;;;4.20;2.58;;;;;;;9.93;91.97;101637.25;5113784;28;20089;-74
2023/10/01 06:03:06;;;;;;;9.43;3.28;;;;;;;9.87;92.34;101643.53;5113721;28;20034;-74
2023/10/01 06:06:25;;;;;;;4.75;3.25;;;;;;;9.91;92.92;101639.91;5113545;28;20106;-74
2023/10/01 06:09:33;;;;;;;13.30;2.63;;;;;;;9.79;93.10;101648.13;5113937;28;20127;-72
2023/10/01 06:12:50;;;;;;;8.20;2.60;;;;;;;9.77;93.53;101647.34;5113433;28;20042;-73
2023/10/01 06:15:56;;;;;;;3.75;2.55;;;;;;;9.90;92.67;101650.41;5113417;28;20119;-73
2023/10/01 06:18:59;;;;;;;3.78;2.10;;;;;;;9.88;92.41;101642.63;5112938;28;20039;-73
2023/10/01 06:22:22;;;;;;;3.88;2.17;;;;;;;9.93;91.69;101638.09;5113221;28;20085;-73
2023/10/01 06:25:43;;;;;;;5.78;2.42;;;;;;;10.00;91.46;101639.63;5113460;28;20066;-73
2023/10/01 06:28:47;;;;;;;4.28;2.80;;;;;;;10.04;91.71;101645.59;5113204;28;20043;-72
2023/10/01 06:32:02;;;;;;;3.55;1.75;;;;;;;10.08;90.89;101648.97;5113187;28;20042;-72
2023/10/01 06:35:06;;;;;;;3.05;2.08;;;;;;;10.10;90.43;101641.94;5112966;28;20061;-72
2023/10/01 06:38:09;;;;;;;4.00;2.45;;;;;;;10.06;90.36;101651.63;5113296;28;20066;-72
2023/10/01 06:41:19;;;;;;;3.47;1.83;;;;;;;10.15;90.21;101642.66;5111841;28;20039;-72
2023/10/01 06:44:22;;;;;;;3.70;2.20;;;;;;;10.27;89.58;101647.50;5112818;28;20055;-73
2023/10/01 06:47:26;;;;;;;;;;;;;;;10.19;89.59;101650.34;5112963;28;20090;-72
2023/10/01 06:50:29;;;;;;;4.57;2.00;;;;;;;10.20;90.18;101656.41;5112781;28;19937;-71
2023/10/01 06:53:45;;;;;;;;;;;;;;;10.28;89.96;101659.69;5112856;28;20042;-72
2023/10/01 06:56:49;;;;;;;3.28;2.05;;;;;;;10.22;90.24;101659.84;5111799;28;19937;-72
2023/10/01 06:59:54;;;;;;;2.88;1.75;;;;;;;10.17;89.86;101656.50;5112163;28;20545;-73
2023/10/01 07:03:16;;;;;;;2.90;1.52;;;;;;;10.08;91.37;101662.03;5112153;28;20078;-72
2023/10/01 07:06:21;;;;;;;3.85;1.40;;;;;;;10.11;90.32;101661.94;5112040;28;20123;-72
2023/10/01 07:09:24;;;;;;;3.38;1.90;;;;;;;10.11;90.34;101661.94;5111958;28;20069;-70
2023/10/01 07:12:29;;;;;;;;;;;;;;;10.09;90.74;101666.38;5112409;28;20159;-71
2023/10/01 07:15:39;;;;;;;3.25;2.00;;;;;;;10.20;90.59;101672.09;5112044;28;19918;-74
2023/10/01 07:18:44;;;;;;;3.67;2.22;;;;;;;9.96;92.80;101666.75;5111833;28;20427;-64
2023/10/01 07:21:56;;;;;;;4.03;2.30;;;;;;;10.07;92.91;101663.78;5112282;28;20055;-72
2023/10/01 07:25:03;;;;;;;3.53;2.40;;;;;;;10.22;93.27;101652.00;5112140;28;20520;-73
2023/10/01 07:28:13;;;;;;;4.57;2.10;;;;;;;10.33;92.23;101657.75;5112057;28;20173;-72
2023/10/01 07:31:19;;;;;;;3.90;2.22;;;;;;;10.37;92.79;101654.16;5111938;28;20096;-72
2023/10/01 07:34:26;;;;;;;3.33;2.03;;;;;;;10.25;93.03;101655.34;5112202;28;20091;-72
2023/10/01 07:37:31;;;;;;;5.05;2.15;;;;;;;10.14;94.52;101659.22;5111818;28;20100;-72
2023/10/01 07:40:52;;;;;;;3.70;2.05;;;;;;;10.37;93.70;101659.38;5112072;28;20042;-72
2023/10/01 07:44:07;;;;;;;3.55;2.03;;;;;;;10.62;92.76;101658.53;5112246;28;20058;-72
2023/10/01 07:47:29;;;;;;;4.60;2.08;;;;;;;10.75;91.74;101653.72;5111822;28;20131;-72
2023/10/01 07:50:44;;;;;;;3.90;2.47;;;;;;;10.76;91.83;101665.91;5112430;28;20510;-72
2023/10/01 07:54:02;;;;;;;3.70;2.30;;;;;;;10.70;92.32;101651.28;5108997;28;20368;-72
2023/10/01 07:57:08;;;;;;;3.55;2.08;;;;;;;10.64;92.61;101647.09;5111116;28;20175;-72
2023/10/01 08:00:26;;;;;;;3.53;1.80;;;;;;;10.70;92.51;101646.03;5110596;28;20045;-72
2023/10/01 08:03:32;;;;;;;3.15;2.20;;;;;;;10.85;91.84;101649.91;5111670;28;20109;-72
2023/10/01 08:06:42;;;;;;;3.38;2.28;;;;;;;10.92;92.09;101649.63;5111825;28;20096;-72
2023/10/01 08:09:53;;;;;;;5.80;2.70;;;;;;;10.89;93.36;101647.09;5114195;28;20542;-71
2023/10/01 08:13:05;;;;;;;3.88;2.35;;;;;;;10.93;94.23;101648.69;5115762;28;20058;-72
2023/10/01 08:16:13;;;;;;;5.43;2.33;;;;;;;11.24;94.47;101649.34;5115797;28;20074;-72
2023/10/01 08:19:20;;;;;;;4.95;2.88;;;;;;;11.34;95.14;101648.09;5116070;28;20047;-72
2023/10/01 08:22:41;;;;;;;4.63;2.53;;;;;;;11.43;94.69;101642.50;5115762;28;20408;-72
2023/10/01 08:25:51;;;;;;;4.72;2.42;;;;;;;11.59;94.11;101633.16;5115846;28;20054;-72
2023/10/01 08:29:04;;;;;;;4.13;2.40;;;;;;;11.77;93.82;101634.22;5115645;28;20078;-73
2023/10/01 08:32:09;;;;;;;3.63;2.20;;;;;;;11.91;93.15;101632.84;5115748;28;20120;-71
2023/10/01 08:35:22;;;;;;;5.45;2.30;;;;;;;11.99;92.66;101633.38;5115371;28;20104;-72
2023/10/01 08:38:34;;;;;;;4.10;2.60;;;;;;;12.12;92.04;101634.56;5115591;28;20127;-72
2023/10/01 08:41:56;;;;;;;9.48;2.33;;;;;;;12.30;91.99;101633.81;5115357;28;20058;-71
2023/10/01 08:45:05;;;;;;;4.97;2.28;;;;;;;12.51;91.71;101637.31;5114389;28;20043;-71
2023/10/01 08:48:17;;;;;;;5.22;2.25;;;;;;;12.59;91.42;101631.72;5114374;28;20050;-72
2023/10/01 08:51:23;;;;;;;8.75;2.75;;;;;;;12.66;91.18;101627.91;5114734;28;20050;-71
2023/10/01 08:54:26;;;;;;;5.88;2.50;;;;;;;12.76;91.87;101629.25;5114572;28;20041;-73
2023/10/01 08:57:38;;;;;;;;;;;;;;;12.85;91.77;101632.34;5115351;28;20046;-73
2023/10/01 09:00:48;;;;;;;7.88;3.03;;;;;;;12.98;91.59;101625.63;5114816;28;19968;-74
2023/10/01 09:03:55;;;;;;;4.82;2.97;;;;;;;13.10;91.43;101622.47;5115184;28;20126;-76
2023/10/01 09:07:04;;;;;;;6.13;3.55;;;;;;;13.23;92.24;101613.09;5114767;28;20054;-74
2023/10/01 09:10:08;;;;;;;10.90;3.83;;;;;;;13.31;92.05;101614.59;5114725;28;20129;-77
2023/10/01 09:13:20;;;;;;;9.02;3.60;;;;;;;13.41;92.13;101616.69;5114630;28;20073;-73
2023/10/01 09:16:34;;;;;;;7.90;3.13;;;;;;;13.53;92.27;101614.41;5114609;28;20526;-77
2023/10/01 09:19:50;;;;;;;6.07;4.15;;;;;;;13.66;92.15;101608.50;5113993;28;20450;-72
2023/10/01 09:23:01;;;;;;;8.02;3.15;;;;;;;13.78;92.54;101603.56;5113517;28;20050;-74
2023/10/01 09:26:03;;;;;;;6.38;2.72;;;;;;;13.88;91.68;101610.06;5114377;28;20066;-72
2023/10/01 09:29:21;;;;;;;8.52;2.85;;;;;;;14.03;91.18;101609.34;5114533;28;20039;-72
2023/10/01 09:32:52;;;;;;;6.35;3.30;;;;;;;14.14;92.91;101596.50;5114843;28;20131;-75
2023/10/01 09:36:00;;;;;;;5.50;2.63;;;;;;;14.35;93.02;101596.34;5114499;28;20498;-74
2023/10/01 09:39:07;;;;;;;7.05;2.95;;;;;;;14.52;93.24;101591.13;5114533;28;20043;-73
2023/10/01 09:42:28;;;;;;;6.25;2.90;;;;;;;14.64;92.00;101587.84;5113511;28;20564;-75
2023/10/01 09:45:41;;;;;;;6.10;2.70;;;;;;;14.76;92.56;101590.75;5113257;28;20124;-75
2023/10/01 09:49:21;;;;;;;10.00;3.17;;;;;;;14.94;93.01;101594.19;5113889;28;20506;-73
2023/10/01 09:52:30;;;;;;;11.20;3.75;;;;;;;14.97;92.66;101586.97;5113981;28;20051;-75
2023/10/01 09:55:47;;;;;;;9.05;3.67;;;;;;;15.08;92.35;101584.59;5113931;28;20396;-75
2023/10/01 09:59:01;;;;;;;8.20;3.47;;;;;;;15.19;90.53;101578.78;5114109;28;20086;-75
2023/10/01 10:02:04;;;;;;;12.02;3.50;;;;;;;15.34;92.11;101571.78;5114163;28;20071;-76
2023/10/01 10:05:22;;;;;;;5.65;3.33;;;;;;;15.44;91.51;101566.84;5113877;28;20046;-76
2023/10/01 10:08:34;;;;;;;9.48;3.53;;;;;;;15.54;91.58;101563.63;5113758;28;20482;-76
2023/10/01 10:11:43;;;;;;;9.35;3.92;;;;;;;15.77;93.96;101556.22;5113708;28;20107;-76
2023/10/01 10:14:56;;;;;;;11.10;3.83;;;;;;;15.89;93.69;101559.91;5113660;28;20172;-77
2023/10/01 10:18:15;;;;;;;6.63;3.75;;;;;;;16.04;91.51;101546.69;5113742;28;20131;-77
2023/10/01 10:21:19;;;;;;;9.85;4.07;;;;;;;16.21;90.76;101547.50;5113727;28;20046;-76
2023/10/01 10:24:28;;;;;;;10.40;4.25;;;;;;;16.30;89.62;101554.00;5113783;28;20104;-84
2023/10/01 10:27:38;;;;;;;8.48;4.40;;;;;;;16.30;89.73;101546.91;5113171;28;20399;-85
2023/10/01 10:31:35;;;;;;;7.03;4.43;;;;;;;16.40;90.07;101539.28;5112000;28;20413;-79
2023/10/01 10:34:47;;;;;;;6.53;4.50;;;;;;;16.45;90.27;101546.00;5112211;28;20656;-79
2023/10/01 10:37:53;;;;;;;10.27;5.07;;;;;;;16.64;90.84;101547.53;5113106;28;20046;-79
2023/10/01 10:41:07;;;;;;;8.70;5.40;;;;;;;16.70;91.09;101547.16;5113303;28;20407;-77
2023/10/01 10:44:10;;;;;;;10.85;5.38;;;;;;;16.78;92.89;101539.63;5112923;28;20108;-81
2023/10/01 10:47:15;;;;;;;9.70;6.28;;;;;;;16.81;91.11;101539.44;5112381;28;20415;-82
2023/10/01 10:50:19;;;;;;;12.15;6.30;;;;;;;17.01;90.95;101540.00;5112810;28;20069;-76
2023/10/01 10:53:29;;;;;;;10.65;6.13;;;;;;;17.01;85.83;101534.72;5117322;28;20034;-82
2023/10/01 10:56:39;;;;;;;9.77;6.05;;;;;;;17.26;85.37;101529.56;5114824;28;20132;-73
2023/10/01 10:59:47;;;;;;;13.57;7.13;;;;;;;17.37;86.87;101527.06;5112611;28;20074;-72
2023/10/01 11:02:57;;;;;;;10.65;6.78;;;;;;;17.56;89.40;101529.34;5112620;28;20135;-72
2023/10/01 11:06:17;;;;;;;12.35;6.60;;;;;;;17.65;84.09;101525.25;5113066;28;20517;-74
2023/10/01 11:09:27;;;;;;;12.82;6.93;;;;;;;17.79;83.39;101529.66;5112428;28;20039;-73
2023/10/01 11:12:34;;;;;;;10.70;7.10;;;;;;;17.81;86.61;101525.13;5112846;28;20046;-73
2023/10/01 11:15:39;;;;;;;13.40;8.23;;;;;;;17.75;78.45;101520.22;5112497;28;20038;-74
2023/10/01 11:18:45;;;;;;;13.68;8.10;;;;;;;17.89;83.46;101515.69;5111382;28;20043;-74
2023/10/01 11:21:58;;;;;;;13.57;8.13;;;;;;;17.95;78.15;101517.09;5112166;28;20104;-74
2023/10/01 11:25:04;;;;;;;11.43;7.03;;;;;;;18.28;76.75;101511.31;5112242;28;20111;-62
2023/10/01 11:28:10;;;;;;;11.80;7.80;;;;;;;18.59;71.20;101509.16;5112042;28;20508;-75
2023/10/01 11:31:27;;;;;;;14.05;7.88;;;;;;;18.59;71.53;101501.22;5112314;28;20096;-74
2023/10/01 11:34:45;;;;;;;10.88;7.25;;;;;;;18.64;69.19;101498.25;5111672;28;20506;-73
2023/10/01 11:37:56;;;;;;;14.52;7.60;;;;;;;18.72;78.89;101488.81;5112171;28;20058;-76
2023/10/01 11:41:06;;;;;;;15.68;8.07;;;;;;;18.84;69.50;101480.97;5112200;28;20049;-75
2023/10/01 11:44:24;;;;;;;14.13;7.63;;;;;;;18.96;68.44;101472.13;5111765;28;20047;-75
2023/10/01 11:48:04;;;;;;;17.58;8.57;;;;;;;19.08;73.08;101473.88;5111719;28;20050;-75
2023/10/01 11:51:08;;;;;;;12.80;8.15;;;;;;;19.09;69.21;101467.63;5111945;28;20061;-74
2023/10/01 11:54:13;;;;;;;14.25;8.00;;;;;;;19.16;69.87;101468.84;5111850;28;20047;-75
2023/10/01 11:57:22;;;;;;;13.93;7.75;;;;;;;19.41;65.92;101456.44;5112161;28;20046;-76
2023/10/01 12:00:52;;;;;;;13.40;8.50;;;;;;;19.56;63.19;101444.69;5111743;28;20045;-75
2023/10/01 12:03:58;;;;;;;14.07;8.32;;;;;;;19.80;62.36;101441.16;5111883;28;20043;-74
2023/10/01 12:07:01;;;;;;;16.30;8.23;;;;;;;20.21;61.98;101438.78;5111926;28;20043;-73
2023/10/01 12:10:05;;;;;;;12.15;8.43;;;;;;;20.34;60.51;101429.84;5111905;28;20514;-72
2023/10/01 12:13:10;;;;;;;13.57;8.90;;;;;;;20.52;60.73;101433.75;5111229;28;20046;-75
2023/10/01 12:16:20;;;;;;;14.32;8.35;;;;;;;20.72;60.94;101429.47;5111869;28;20069;-73
2023/10/01 12:19:24;;;;;;;11.68;8.15;;;;;;;20.92;62.32;101419.03;5111791;28;20050;-72
2023/10/01 12:22:29;;;;;;;14.20;8.18;;;;;;;21.02;57.67;101412.81;5111651;28;20104;-72
2023/10/01 12:25:49;;;;;;;14.85;8.65;;;;;;;21.21;58.11;101413.97;5111796;28;20550;-72
2023/10/01 12:29:13;;;;;;;15.80;8.63;;;;;;;21.50;56.12;101406.25;5111623;28;20119;-75
2023/10/01 12:32:17;;;;;;;13.23;8.43;;;;;;;21.77;54.99;101411.88;5111689;28;20086;-71
2023/10/01 12:35:29;;;;;;;16.08;8.50;;;;;;;21.88;56.61;101400.31;5111746;28;20131;-73
2023/10/01 12:38:32;;;;;;;15.27;9.03;;;;;;;22.22;54.46;101400.06;5111630;28;20046;-76
2023/10/01 12:41:47;;;;;;;12.00;8.30;;;;;;;22.38;53.41;101399.56;5111512;28;20134;-72
2023/10/01 12:44:50;;;;;;;15.48;8.88;;;;;;;22.54;54.40;101399.88;5111386;28;20180;-71
2023/10/01 12:48:08;;;;;;;13.93;8.60;;;;;;;22.90;53.22;101398.41;5111003;28;20073;-66
2023/10/01 12:51:12;;;;;;;14.75;9.27;;;;;;;23.12;52.73;101393.81;5111017;28;20521;-66
2023/10/01 12:54:27;;;;;;;14.63;8.82;;;;;;;23.87;48.97;101377.00;5110959;28;20128;-66
2023/10/01 12:57:38;;;;;;;14.82;8.63;;;;;;;24.51;49.55;101377.97;5114890;28;20066;-68
2023/10/01 13:00:45;;;;;;;14.38;9.90;;;;;;;25.59;47.54;101361.84;5115426;28;20050;-66
2023/10/01 13:03:49;;;;;;;12.90;8.88;;;;;;;26.97;44.44;101361.56;5114678;28;20062;-67
2023/10/01 13:07:12;;;;;;;15.32;9.25;;;;;;;29.69;38.51;101362.78;5114760;28;20130;-67
2023/10/01 13:10:16;;;;;;;12.40;8.80;;;;;;;33.42;32.01;101348.91;5114453;28;20184;-66
2023/10/01 13:13:29;;;;;;;12.45;8.85;;;;;;;34.99;31.16;101345.91;5114738;28;20085;-66
2023/10/01 13:16:33;;;;;;;13.82;8.40;;;;;;;35.00;29.58;101340.22;5114334;28;20086;-66
2023/10/01 13:19:43;;;;;;;12.57;9.50;;;;;;;34.92;26.92;101346.78;5114401;28;20039;-69
2023/10/01 13:22:53;;;;;;;12.55;9.07;;;;;;;36.59;24.65;101342.22;5114217;28;20082;-70
2023/10/01 13:29:35;;;;;;;13.60;9.38;;;;;;;35.66;24.61;101338.81;5114255;28;20097;-74
2023/10/01 13:32:57;;;;;;;12.70;9.95;;;;;;;36.67;23.22;101337.28;5114435;28;20047;-74
2023/10/01 13:36:12;;;;;;;13.63;9.57;;;;;;;35.03;24.49;101333.56;5114357;28;20442;-75
2023/10/01 14:09:46;;;;;;;14.88;10.23;;;;;;;34.94;28.77;101300.34;5113809;28;20506;-80
2023/10/01 14:13:00;;;;;;;11.95;9.90;;;;;;;37.35;24.27;101294.19;5113512;28;20418;-81
2023/10/01 14:19:41;;;;;;;14.05;10.38;;;;;;;35.71;23.17;101273.66;5101017;28;20058;-81
2023/10/01 14:22:49;;;;;;;13.35;10.27;;;;;;;38.14;22.24;101280.81;5113441;28;20534;-81
2023/10/01 14:26:10;;;;;;;12.45;9.60;;;;;;;38.70;23.02;101273.56;5113391;28;20109;-81
2023/10/01 14:29:16;;;;;;;13.10;10.40;;;;;;;39.70;21.87;101270.88;5113148;28;20108;-81
2023/10/01 14:32:31;;;;;;;12.25;9.45;;;;;;;34.84;24.17;101268.25;5113250;28;20062;-81
2023/10/01 14:35:37;;;;;;;10.32;9.05;;;;;;;36.30;24.68;101271.19;5113340;28;20050;-80
2023/10/01 14:38:40;;;;;;;13.88;9.48;;;;;;;36.90;23.83;101260.16;5113108;28;20062;-80
2023/10/01 14:41:45;;;;;;;11.38;9.52;;;;;;;36.75;25.13;101257.91;5113012;28;20096;-80
2023/10/01 14:44:50;;;;;;;10.82;9.27;;;;;;;37.62;24.88;101261.75;5112969;28;20061;-80
2023/10/01 14:47:56;;;;;;;14.73;9.05;;;;;;;37.45;25.08;101257.06;5112808;28;20043;-81
2023/10/01 14:51:02;;;;;;;12.05;9.15;;;;;;;36.94;25.97;101255.06;5113154;28;20096;-80
2023/10/01 14:54:16;;;;;;;16.08;11.63;;;;;;;35.08;27.49;101258.44;5112699;28;20063;-80
2023/10/01 14:57:19;;;;;;;12.07;9.40;;;;;;;33.23;31.17;101255.75;5112813;28;20203;-80
2023/10/01 15:00:22;;;;;;;15.50;10.23;;;;;;;31.80;34.36;101257.00;5112712;28;20138;-81
2023/10/01 15:03:34;;;;;;;14.65;9.77;;;;;;;31.53;33.72;101253.38;5112746;28;20042;-80
2023/10/01 15:06:37;;;;;;;13.88;9.98;;;;;;;28.83;38.73;101249.97;5112677;28;20050;-80
2023/10/01 15:09:41;;;;;;;13.63;10.35;;;;;;;27.79;40.42;101256.69;5112518;28;20484;-80
2023/10/01 15:12:48;;;;;;;12.35;9.13;;;;;;;27.33;43.63;101256.50;5112359;28;20135;-79
2023/10/01 15:15:51;;;;;;;15.27;9.23;;;;;;;26.73;44.96;101256.91;5112368;28;20415;-79
2023/10/01 15:19:00;;;;;;;14.82;9.68;;;;;;;25.81;47.96;101261.41;5111971;28;20092;-79
2023/10/01 15:22:08;;;;;;;12.55;9.50;;;;;;;25.19;49.44;101251.69;5112273;28;20046;-79